createdAt,value
2019-02-10T00:00:58.804Z,98923.88
2019-02-10T00:03:31.016Z,98918.94
2019-02-10T00:06:03.261Z,98907.80
2019-02-10T00:08:35.545Z,98903.80
2019-02-10T00:11:07.829Z,98907.31
2019-02-10T00:13:40.495Z,98902.64
2019-02-10T00:16:21.615Z,98895.05
2019-02-10T00:18:53.839Z,98891.17
2019-02-10T00:21:26.006Z,98879.91
2019-02-10T00:23:58.138Z,98882.89
2019-02-10T00:26:30.293Z,98872.77
2019-02-10T00:29:02.426Z,98866.16
2019-02-10T00:31:34.582Z,98864.02
2019-02-10T00:34:06.713Z,98860.34
2019-02-10T00:36:38.888Z,98857.70
2019-02-10T00:39:11.159Z,98861.67
2019-02-10T00:41:43.333Z,98858.06
2019-02-10T00:44:15.526Z,98848.34
2019-02-10T00:46:47.683Z,98846.65
2019-02-10T00:49:19.823Z,98848.88
2019-02-10T00:51:53.031Z,98838.48
2019-02-10T00:54:25.161Z,98843.20
2019-02-10T00:56:58.294Z,98839.34
2019-02-10T00:59:30.464Z,98833.60
2019-02-10T01:02:02.706Z,98828.01
2019-02-10T01:04:34.966Z,98818.66
2019-02-10T01:07:07.344Z,98820.58
2019-02-10T01:09:39.654Z,98815.09
2019-02-10T01:12:11.877Z,98809.38
2019-02-10T01:14:44.113Z,98801.02
2019-02-10T01:17:16.247Z,98793.59
2019-02-10T01:19:48.488Z,98783.44
2019-02-10T01:22:20.705Z,98775.91
2019-02-10T01:24:52.857Z,98780.42
2019-02-10T01:27:25.056Z,98781.73
2019-02-10T01:29:57.215Z,98779.03
2019-02-10T01:32:29.458Z,98774.30
2019-02-10T01:35:01.623Z,98767.66
2019-02-10T01:37:39.558Z,98763.83
2019-02-10T01:40:12.074Z,98755.91
2019-02-10T01:42:45.233Z,98749.55
2019-02-10T01:45:17.526Z,98743.22
2019-02-10T01:47:49.678Z,98740.23
2019-02-10T01:50:21.926Z,98734.55
2019-02-10T01:52:54.061Z,98725.05
2019-02-10T01:55:26.224Z,98715.48
2019-02-10T01:57:58.349Z,98706.52
2019-02-10T02:00:30.610Z,98689.41
2019-02-10T02:03:02.775Z,98688.34
2019-02-10T02:05:35.197Z,98673.05
2019-02-10T02:08:07.324Z,98672.20
2019-02-10T02:10:39.641Z,98662.05
2019-02-10T02:13:11.915Z,98645.02
2019-02-10T02:15:44.081Z,98642.50
2019-02-10T02:18:16.283Z,98631.44
2019-02-10T02:20:48.607Z,98611.19
2019-02-10T02:23:20.755Z,98616.66
2019-02-10T02:25:52.987Z,98599.61
2019-02-10T02:28:25.199Z,98601.72
2019-02-10T02:30:57.353Z,98594.67
2019-02-10T02:33:29.640Z,98598.54
2019-02-10T02:36:01.871Z,98594.27
2019-02-10T02:38:34.017Z,98596.20
2019-02-10T02:41:06.327Z,98591.02
2019-02-10T02:43:38.456Z,98578.76
2019-02-10T02:46:10.609Z,98582.63
2019-02-10T02:48:42.735Z,98578.64
2019-02-10T02:51:14.981Z,98566.97
2019-02-10T02:53:47.126Z,98567.30
2019-02-10T02:56:19.307Z,98560.45
2019-02-10T02:58:51.445Z,98554.16
2019-02-10T03:01:23.769Z,98549.73
2019-02-10T03:03:55.971Z,98541.92
2019-02-10T03:06:45.440Z,98529.53
2019-02-10T03:09:17.842Z,98506.42
2019-02-10T03:11:49.987Z,98503.77
2019-02-10T03:14:22.121Z,98496.87
2019-02-10T03:16:54.619Z,98495.75
2019-02-10T03:19:26.746Z,98490.70
2019-02-10T03:21:58.921Z,98490.58
2019-02-10T03:24:31.146Z,98481.53
2019-02-10T03:27:03.371Z,98468.46
2019-02-10T03:29:35.504Z,98452.17
2019-02-10T03:32:07.691Z,98437.87
2019-02-10T03:34:39.827Z,98434.05
2019-02-10T03:37:12.070Z,98438.27
2019-02-10T03:39:44.327Z,98437.39
2019-02-10T03:42:16.662Z,98434.84
2019-02-10T03:44:48.862Z,98431.02
2019-02-10T03:47:22.390Z,98420.03
2019-02-10T03:49:55.064Z,98416.23
2019-02-10T03:52:27.360Z,98404.41
2019-02-10T03:54:59.529Z,98398.67
2019-02-10T03:57:31.752Z,98396.92
2019-02-10T04:00:04.096Z,98384.45
2019-02-10T04:02:36.618Z,98376.00
2019-02-10T04:05:08.851Z,98369.54
2019-02-10T04:07:41.014Z,98376.59
2019-02-10T04:10:13.292Z,98357.19
2019-02-10T04:12:45.769Z,98347.43
2019-02-10T04:15:18.159Z,98355.08
2019-02-10T04:17:50.569Z,98347.94
2019-02-10T04:20:23.404Z,98337.10
2019-02-10T04:22:55.629Z,98336.82
2019-02-10T04:25:27.814Z,98330.67
2019-02-10T04:27:59.980Z,98317.77
2019-02-10T04:30:32.100Z,98317.05
2019-02-10T04:33:04.396Z,98307.36
2019-02-10T04:35:36.537Z,98304.20
2019-02-10T04:38:08.797Z,98297.98
2019-02-10T04:40:40.937Z,98305.48
2019-02-10T04:43:13.056Z,98297.06
2019-02-10T04:45:45.210Z,98298.60
2019-02-10T04:48:17.351Z,98285.37
2019-02-10T04:50:49.502Z,98287.16
2019-02-10T04:53:21.673Z,98278.72
2019-02-10T04:56:17.859Z,98271.58
2019-02-10T04:58:50.301Z,98270.02
2019-02-10T05:01:22.447Z,98256.37
2019-02-10T05:03:54.571Z,98241.58
2019-02-10T05:06:26.749Z,98227.08
2019-02-10T05:08:58.954Z,98234.28
2019-02-10T05:11:31.253Z,98226.70
2019-02-10T05:14:03.451Z,98221.95
2019-02-10T05:16:35.578Z,98223.70
2019-02-10T05:19:07.747Z,98229.62
2019-02-10T05:21:39.899Z,98212.70
2019-02-10T05:24:12.090Z,98199.50
2019-02-10T05:26:44.345Z,98193.19
2019-02-10T05:29:16.437Z,98185.34
2019-02-10T05:31:48.647Z,98176.12
2019-02-10T05:34:20.862Z,98173.25
2019-02-10T05:36:53.002Z,98175.97
2019-02-10T05:39:25.410Z,98169.81
2019-02-10T05:41:57.552Z,98163.94
2019-02-10T05:44:29.709Z,98157.72
2019-02-10T05:47:01.822Z,98157.56
2019-02-10T05:49:34.065Z,98152.46
2019-02-10T05:52:06.176Z,98154.56
2019-02-10T05:54:38.341Z,98151.09
2019-02-10T05:57:10.466Z,98141.68
2019-02-10T05:59:42.622Z,98132.59
2019-02-10T06:02:30.341Z,98119.19
2019-02-10T06:05:10.774Z,98120.95
2019-02-10T06:07:42.905Z,98104.02
2019-02-10T06:10:16.156Z,98093.02
2019-02-10T06:12:48.350Z,98096.72
2019-02-10T06:15:20.506Z,98087.11
2019-02-10T06:17:52.691Z,98093.05
2019-02-10T06:20:24.834Z,98087.24
2019-02-10T06:22:57.211Z,98088.87
2019-02-10T06:25:31.376Z,98077.36
2019-02-10T06:28:08.135Z,98081.83
2019-02-10T06:30:43.197Z,98068.59
2019-02-10T06:33:15.430Z,98072.64
2019-02-10T06:35:47.682Z,98072.63
2019-02-10T06:38:22.503Z,98065.97
2019-02-10T06:40:53.700Z,98062.65
2019-02-10T06:43:25.841Z,98053.27
2019-02-10T06:45:58.080Z,98055.53
2019-02-10T06:48:30.194Z,98043.25
2019-02-10T06:51:02.353Z,98027.68
2019-02-10T06:53:34.877Z,98014.58
2019-02-10T06:56:07.050Z,98013.33
2019-02-10T06:58:39.250Z,98003.92
2019-02-10T07:01:30.532Z,98000.47
2019-02-10T07:04:20.427Z,97987.20
2019-02-10T07:06:52.864Z,97971.28
2019-02-10T07:09:27.054Z,97962.43
2019-02-10T07:11:59.219Z,97958.95
2019-02-10T07:14:36.852Z,97936.45
2019-02-10T07:18:23.163Z,97925.95
2019-02-10T07:20:55.368Z,97912.06
2019-02-10T07:24:21.174Z,97910.33
2019-02-10T07:26:59.175Z,97911.42
2019-02-10T07:30:12.577Z,97903.58
2019-02-10T07:32:50.126Z,97912.04
2019-02-10T07:36:24.765Z,97897.84
2019-02-10T07:39:18.008Z,97884.29
2019-02-10T07:42:49.729Z,97876.92
2019-02-10T07:46:13.734Z,97866.87
2019-02-10T07:49:25.148Z,97866.23
2019-02-10T07:52:59.222Z,97866.91
2019-02-10T07:56:09.984Z,97864.34
2019-02-10T07:59:16.372Z,97875.37
2019-02-10T08:03:12.892Z,97858.61
2019-02-10T08:06:40.194Z,97862.28
2019-02-10T08:10:13.333Z,97873.55
2019-02-10T08:13:10.044Z,97865.42
2019-02-10T08:15:58.203Z,97866.41
2019-02-10T08:19:22.907Z,97855.81
2019-02-10T08:22:52.416Z,97849.22
2019-02-10T08:26:36.462Z,97847.66
2019-02-10T08:30:15.591Z,97817.97
2019-02-10T08:33:39.750Z,97832.14
2019-02-10T08:37:18.877Z,97813.53
2019-02-10T08:40:29.803Z,97810.86
2019-02-10T08:43:56.844Z,97811.08
2019-02-10T08:47:23.123Z,97801.55
2019-02-10T08:50:23.436Z,97785.95
2019-02-10T08:53:31.621Z,97779.92
2019-02-10T08:56:03.784Z,97771.81
2019-02-10T08:58:37.029Z,97764.36
2019-02-10T09:01:09.189Z,97757.54
2019-02-10T09:03:41.405Z,97746.59
2019-02-10T09:06:13.592Z,97747.59
2019-02-10T09:08:45.824Z,97742.83
2019-02-10T09:11:18.050Z,97741.75
2019-02-10T09:13:50.218Z,97732.03
2019-02-10T09:16:22.592Z,97718.31
2019-02-10T09:18:54.736Z,97717.59
2019-02-10T09:21:26.955Z,97706.92
2019-02-10T09:24:00.653Z,97695.47
2019-02-10T09:26:32.707Z,97694.18
2019-02-10T09:29:06.374Z,97686.41
2019-02-10T09:31:38.591Z,97679.70
2019-02-10T09:34:10.731Z,97675.41
2019-02-10T09:36:42.870Z,97655.47
2019-02-10T09:39:15.048Z,97659.97
2019-02-10T09:41:49.502Z,97646.90
2019-02-10T09:44:21.340Z,97652.49
2019-02-10T09:46:53.579Z,97638.63
2019-02-10T09:49:25.730Z,97638.98
2019-02-10T09:51:58.134Z,97634.38
2019-02-10T09:54:30.312Z,97630.54
2019-02-10T09:57:03.587Z,97617.77
2019-02-10T09:59:35.820Z,97612.11
2019-02-10T10:02:07.963Z,97605.70
2019-02-10T10:04:40.245Z,97604.97
2019-02-10T10:07:12.502Z,97606.25
2019-02-10T10:09:44.673Z,97603.41
2019-02-10T10:12:16.799Z,97593.39
2019-02-10T10:14:48.937Z,97588.47
2019-02-10T10:17:21.054Z,97586.73
2019-02-10T10:19:54.923Z,97581.30
2019-02-10T10:22:27.194Z,97582.47
2019-02-10T10:25:00.709Z,97582.77
2019-02-10T10:27:34.091Z,97570.69
2019-02-10T10:30:09.090Z,97569.75
2019-02-10T10:32:41.308Z,97575.02
2019-02-10T10:35:13.474Z,97560.66
2019-02-10T10:37:46.028Z,97565.65
2019-02-10T10:40:18.179Z,97571.76
2019-02-10T10:42:50.235Z,97568.70
2019-02-10T10:45:23.489Z,97556.44
2019-02-10T10:47:55.616Z,97551.50
2019-02-10T10:50:27.903Z,97544.16
2019-02-10T10:53:00.126Z,97534.89
2019-02-10T10:55:32.371Z,97529.80
2019-02-10T10:58:04.508Z,97532.99
2019-02-10T11:00:36.808Z,97532.52
2019-02-10T11:03:09.368Z,97522.95
2019-02-10T11:05:41.553Z,97522.16
2019-02-10T11:08:13.698Z,97512.44
2019-02-10T11:10:46.063Z,97499.48
2019-02-10T11:13:18.244Z,97492.95
2019-02-10T11:15:51.559Z,97483.69
2019-02-10T11:18:23.704Z,97489.61
2019-02-10T11:20:55.984Z,97484.03
2019-02-10T11:23:28.108Z,97485.30
2019-02-10T11:26:00.302Z,97489.78
2019-02-10T11:28:32.470Z,97468.05
2019-02-10T11:31:04.630Z,97465.50
2019-02-10T11:33:36.850Z,97441.05
2019-02-10T11:36:09.097Z,97452.22
2019-02-10T11:38:41.291Z,97447.41
2019-02-10T11:41:13.545Z,97453.47
2019-02-10T11:43:45.771Z,97454.77
2019-02-10T11:46:17.950Z,97436.86
2019-02-10T11:48:50.148Z,97440.69
2019-02-10T11:51:22.408Z,97445.98
2019-02-10T11:54:13.106Z,97432.22
2019-02-10T11:56:45.254Z,97437.49
2019-02-10T11:59:17.525Z,97434.16
2019-02-10T12:01:49.740Z,97419.92
2019-02-10T12:04:21.873Z,97431.44
2019-02-10T12:06:54.057Z,97414.47
2019-02-10T12:09:26.178Z,97408.40
2019-02-10T12:11:58.329Z,97400.58
2019-02-10T12:14:30.448Z,97412.54
2019-02-10T12:17:02.589Z,97426.73
2019-02-10T12:19:35.977Z,97395.27
2019-02-10T12:22:08.413Z,97397.02
2019-02-10T12:24:40.596Z,97394.25
2019-02-10T12:27:12.894Z,97397.91
2019-02-10T12:29:45.173Z,97394.87
2019-02-10T12:32:17.511Z,97372.50
2019-02-10T12:34:49.776Z,97390.99
2019-02-10T12:37:21.936Z,97387.00
2019-02-10T12:39:59.686Z,97389.53
2019-02-10T12:42:28.006Z,97392.86
2019-02-10T12:45:00.199Z,97382.62
2019-02-10T12:47:32.428Z,97378.63
2019-02-10T12:50:05.145Z,97368.71
2019-02-10T12:52:37.469Z,97370.93
2019-02-10T12:55:10.051Z,97381.92
2019-02-10T12:57:42.293Z,97368.02
2019-02-10T13:00:16.068Z,97362.72
2019-02-10T13:02:48.314Z,97351.06
2019-02-10T13:05:21.593Z,97357.59
2019-02-10T13:07:53.893Z,97346.10
2019-02-10T13:10:26.095Z,97327.57
2019-02-10T13:12:58.573Z,97335.84
2019-02-10T13:15:30.670Z,97316.21
2019-02-10T13:18:02.823Z,97319.59
2019-02-10T13:20:35.023Z,97312.88
2019-02-10T13:23:07.213Z,97314.31
2019-02-10T13:25:39.337Z,97311.09
2019-02-10T13:28:11.554Z,97304.25
2019-02-10T13:30:43.677Z,97297.86
2019-02-10T13:33:15.876Z,97307.12
2019-02-10T13:35:49.068Z,97318.00
2019-02-10T13:38:21.218Z,97319.75
2019-02-10T13:40:53.589Z,97328.03
2019-02-10T13:43:33.218Z,97315.90
2019-02-10T13:45:59.768Z,97318.14
2019-02-10T13:48:31.955Z,97328.38
2019-02-10T13:51:04.079Z,97313.37
2019-02-10T13:53:36.317Z,97320.84
2019-02-10T13:56:08.595Z,97316.24
2019-02-10T13:58:41.110Z,97312.73
2019-02-10T14:01:13.462Z,97326.94
2019-02-10T14:03:45.814Z,97319.27
2019-02-10T14:06:18.080Z,97315.62
2019-02-10T14:08:50.237Z,97318.78
2019-02-10T14:11:22.457Z,97323.58
2019-02-10T14:13:54.836Z,97322.30
2019-02-10T14:16:26.957Z,97337.75
2019-02-10T14:18:59.736Z,97344.79
2019-02-10T14:21:31.935Z,97349.73
2019-02-10T14:24:07.345Z,97347.63
2019-02-10T14:26:39.554Z,97350.17
2019-02-10T14:29:11.743Z,97343.32
2019-02-10T14:31:44.031Z,97336.22
2019-02-10T14:34:17.813Z,97351.38
2019-02-10T14:36:50.086Z,97350.87
2019-02-10T14:39:22.395Z,97363.30
2019-02-10T14:41:54.524Z,97363.90
2019-02-10T14:44:26.680Z,97387.02
2019-02-10T14:46:58.810Z,97394.66
2019-02-10T14:49:31.169Z,97393.35
2019-02-10T14:52:03.405Z,97403.86
2019-02-10T14:54:35.807Z,97403.54
2019-02-10T14:57:07.931Z,97408.94
2019-02-10T14:59:40.091Z,97398.08
2019-02-10T15:02:12.309Z,97408.75
2019-02-10T15:04:44.534Z,97397.58
2019-02-10T15:07:25.052Z,97390.20
2019-02-10T15:09:50.508Z,97398.62
2019-02-10T15:12:22.642Z,97407.38
2019-02-10T15:14:54.798Z,97409.60
2019-02-10T15:17:27.047Z,97413.72
2019-02-10T15:19:59.200Z,97411.64
2019-02-10T15:22:31.327Z,97417.52
2019-02-10T15:25:03.640Z,97420.98
2019-02-10T15:27:35.831Z,97420.00
2019-02-10T15:30:10.413Z,97412.14
2019-02-10T15:32:42.834Z,97413.38
2019-02-10T15:35:14.923Z,97422.16
2019-02-10T15:37:47.139Z,97426.42
2019-02-10T15:40:19.323Z,97429.29
2019-02-10T15:42:51.454Z,97432.31
2019-02-10T15:45:23.731Z,97444.86
2019-02-10T15:47:55.866Z,97443.42
2019-02-10T15:50:28.106Z,97451.82
2019-02-10T15:53:00.244Z,97444.15
2019-02-10T15:55:32.412Z,97446.70
2019-02-10T15:58:04.693Z,97445.42
2019-02-10T16:00:36.910Z,97451.60
2019-02-10T16:03:09.045Z,97456.68
2019-02-10T16:05:41.539Z,97465.59
2019-02-10T16:08:13.711Z,97470.03
2019-02-10T16:10:45.948Z,97466.98
2019-02-10T16:13:18.080Z,97479.06
2019-02-10T16:15:50.174Z,97475.05
2019-02-10T16:18:22.306Z,97479.80
2019-02-10T16:20:54.637Z,97481.67
2019-02-10T16:23:26.728Z,97473.36
2019-02-10T16:25:58.988Z,97479.22
2019-02-10T16:28:31.130Z,97491.30
2019-02-10T16:31:03.283Z,97498.00
2019-02-10T16:33:35.413Z,97511.84
2019-02-10T16:36:07.508Z,97513.08
2019-02-10T16:38:39.638Z,97506.22
2019-02-10T16:41:11.821Z,97503.63
2019-02-10T16:43:44.029Z,97514.39
2019-02-10T16:46:16.220Z,97514.70
2019-02-10T16:48:48.278Z,97521.57
2019-02-10T16:51:20.437Z,97526.98
2019-02-10T16:53:52.792Z,97529.66
2019-02-10T16:56:24.938Z,97540.95
2019-02-10T16:58:57.132Z,97538.41
2019-02-10T17:01:29.342Z,97541.58
2019-02-10T17:04:01.475Z,97553.00
2019-02-10T17:06:33.753Z,97563.20
2019-02-10T17:09:06.579Z,97570.68
2019-02-10T17:11:40.614Z,97566.68
2019-02-10T17:14:12.748Z,97579.42
2019-02-10T17:16:44.988Z,97566.95
2019-02-10T17:19:17.207Z,97571.69
2019-02-10T17:21:49.483Z,97571.52
2019-02-10T17:24:21.699Z,97586.00
2019-02-10T17:26:53.889Z,97589.32
2019-02-10T17:29:26.037Z,97585.34
2019-02-10T17:31:58.218Z,97596.76
2019-02-10T17:34:30.345Z,97610.14
2019-02-10T17:37:02.515Z,97622.24
2019-02-10T17:39:35.734Z,97634.67
2019-02-10T17:42:07.893Z,97620.81
2019-02-10T17:44:40.019Z,97637.80
2019-02-10T17:47:12.204Z,97657.20
2019-02-10T17:49:44.340Z,97665.00
2019-02-10T17:52:16.488Z,97667.87
2019-02-10T17:54:48.780Z,97683.66
2019-02-10T17:57:20.965Z,97699.56
2019-02-10T17:59:53.095Z,97693.19
2019-02-10T18:02:25.522Z,97696.22
2019-02-10T18:04:57.651Z,97698.89
2019-02-10T18:07:29.816Z,97707.50
2019-02-10T18:10:01.946Z,97720.71
2019-02-10T18:12:34.360Z,97719.95
2019-02-10T18:15:35.046Z,97733.03
2019-02-10T18:18:28.992Z,97748.61
2019-02-10T18:21:18.772Z,97750.20
2019-02-10T18:24:05.889Z,97746.16
2019-02-10T18:27:09.237Z,97755.86
2019-02-10T18:30:06.608Z,97763.79
2019-02-10T18:33:00.164Z,97777.48
2019-02-10T18:35:49.851Z,97783.06
2019-02-10T18:38:39.925Z,97786.56
2019-02-10T18:41:39.517Z,97789.22
2019-02-10T18:44:29.304Z,97794.89
2019-02-10T18:47:08.789Z,97792.93
2019-02-10T18:49:59.878Z,97787.67
2019-02-10T18:52:39.643Z,97797.68
2019-02-10T18:55:43.247Z,97802.80
2019-02-10T18:58:39.482Z,97790.35
2019-02-10T19:01:36.461Z,97797.81
2019-02-10T19:04:35.665Z,97804.17
2019-02-10T19:07:16.921Z,97796.19
2019-02-10T19:10:08.003Z,97807.94
2019-02-10T19:12:48.696Z,97813.62
2019-02-10T19:15:38.461Z,97801.52
2019-02-10T19:18:22.395Z,97798.20
2019-02-10T19:21:31.576Z,97815.21
2019-02-10T19:24:11.763Z,97806.58
2019-02-10T19:26:59.479Z,97818.50
2019-02-10T19:30:00.109Z,97824.33
2019-02-10T19:33:00.001Z,97841.63
2019-02-10T19:35:48.491Z,97854.14
2019-02-10T19:38:39.864Z,97869.45
2019-02-10T19:41:46.244Z,97862.70
2019-02-10T19:44:36.080Z,97865.86
2019-02-10T19:47:39.229Z,97881.69
2019-02-10T19:50:22.775Z,97872.87
2019-02-10T19:53:19.632Z,97885.89
2019-02-10T19:56:07.459Z,97904.70
2019-02-10T19:59:16.838Z,97917.44
2019-02-10T20:02:03.816Z,97913.08
2019-02-10T20:04:57.598Z,97923.80
2019-02-10T20:07:38.951Z,97930.86
2019-02-10T20:10:33.233Z,97947.67
2019-02-10T20:13:27.143Z,97957.27
2019-02-10T20:16:03.611Z,97939.45
2019-02-10T20:18:51.523Z,97944.73
2019-02-10T20:21:42.679Z,97959.30
2019-02-10T20:24:32.621Z,97947.43
2019-02-10T20:27:22.655Z,97948.57
2019-02-10T20:30:11.385Z,97950.95
2019-02-10T20:32:50.216Z,97951.70
2019-02-10T20:35:40.346Z,97953.58
2019-02-10T20:38:31.382Z,97948.45
2019-02-10T20:41:15.874Z,97958.37
2019-02-10T20:44:00.498Z,97964.70
2019-02-10T20:46:49.293Z,97973.29
2019-02-10T20:49:37.706Z,97966.89
2019-02-10T20:52:25.862Z,97972.94
2019-02-10T20:55:05.866Z,97977.07
2019-02-10T20:58:00.510Z,97989.95
2019-02-10T21:00:50.545Z,97998.43
2019-02-10T21:03:39.252Z,98000.78
2019-02-10T21:06:32.332Z,98024.24
2019-02-10T21:09:36.484Z,98024.56
2019-02-10T21:12:30.746Z,98035.37
2019-02-10T21:15:28.319Z,98042.09
2019-02-10T21:18:16.624Z,98034.89
2019-02-10T21:21:13.640Z,98046.82
2019-02-10T21:23:55.463Z,98043.52
2019-02-10T21:26:44.446Z,98051.55
2019-02-10T21:29:44.516Z,98056.20
2019-02-10T21:32:53.732Z,98057.63
2019-02-10T21:35:43.365Z,98066.97
2019-02-10T21:38:33.234Z,98068.88
2019-02-10T21:41:27.306Z,98083.67
2019-02-10T21:44:06.806Z,98086.38
2019-02-10T21:46:59.147Z,98096.63
2019-02-10T21:49:31.275Z,98100.59
2019-02-10T21:52:03.430Z,98109.38
2019-02-10T21:54:35.664Z,98118.52
2019-02-10T21:57:07.910Z,98117.61
2019-02-10T21:59:40.087Z,98119.55
2019-02-10T22:02:12.446Z,98133.78
2019-02-10T22:04:44.580Z,98136.92
2019-02-10T22:07:16.740Z,98132.20
2019-02-10T22:09:48.962Z,98134.73
2019-02-10T22:12:21.191Z,98145.05
2019-02-10T22:14:53.328Z,98145.41
2019-02-10T22:17:25.565Z,98133.50
2019-02-10T22:19:57.820Z,98152.62
2019-02-10T22:22:29.977Z,98159.51
2019-02-10T22:25:02.118Z,98158.23
2019-02-10T22:27:34.340Z,98163.13
2019-02-10T22:30:10.606Z,98165.08
2019-02-10T22:32:42.861Z,98173.98
2019-02-10T22:35:15.018Z,98183.22
2019-02-10T22:37:47.322Z,98178.00
2019-02-10T22:40:19.461Z,98188.42
2019-02-10T22:42:51.771Z,98187.94
2019-02-10T22:45:23.889Z,98189.70
2019-02-10T22:47:56.454Z,98185.59
2019-02-10T22:50:28.675Z,98184.01
2019-02-10T22:53:00.845Z,98193.95
2019-02-10T22:55:33.069Z,98183.77
2019-02-10T22:58:05.308Z,98197.89
2019-02-10T23:00:52.060Z,98193.63
2019-02-10T23:03:24.809Z,98204.09
2019-02-10T23:05:56.936Z,98211.97
2019-02-10T23:08:29.085Z,98218.92
2019-02-10T23:11:01.341Z,98227.55
2019-02-10T23:13:33.804Z,98235.39
2019-02-10T23:16:07.084Z,98238.84
2019-02-10T23:18:39.309Z,98254.43
2019-02-10T23:21:11.509Z,98258.56
2019-02-10T23:23:43.760Z,98274.80
2019-02-10T23:26:15.961Z,98271.97
2019-02-10T23:28:48.120Z,98289.47
2019-02-10T23:31:20.333Z,98290.27
2019-02-10T23:33:52.568Z,98303.78
2019-02-10T23:36:24.873Z,98308.08
2019-02-10T23:38:58.166Z,98318.73
2019-02-10T23:41:30.220Z,98330.51
2019-02-10T23:44:02.403Z,98335.59
2019-02-10T23:46:34.605Z,98346.17
2019-02-10T23:49:06.769Z,98355.23
2019-02-10T23:51:38.841Z,98366.52
2019-02-10T23:54:11.025Z,98370.67
2019-02-10T23:56:47.190Z,98374.05
2019-02-10T23:59:17.096Z,98372.89
